Date,TemperatureHighF,TemperatureAvgF,TemperatureLowF,DewpointHighF,DewpointAvgF,DewpointLowF,HumidityHigh,HumidityAvg,HumidityLow,PressureMaxIn,PressureMinIn,WindSpeedMaxMPH,WindSpeedAvgMPH,GustSpeedMaxMPH,PrecipitationSumIn
2013-1-1,76,63,47,59,56,47,100,79,52,30.14,29.93,9,0,9,0.06
2013-1-2,76,62,53,67,60,53,100,91,69,30.00,29.88,7,0,7,0.05
2013-1-3,60,56,49,60,55,48,100,97,86,30.16,29.98,7,0,7,0.05
2013-1-4,58,51,47,53,49,45,100,93,82,30.25,30.15,6,0,6,0.01
2013-1-5,63,52,41,54,48,40,97,87,68,30.27,30.18,6,0,7,0.00
2013-1-6,62,56,50,57,54,50,100,94,80,30.18,30.04,5,0,5,0.33
2013-1-7,62,55,47,55,51,44,100,86,71,30.21,30.11,9,0,9,0.00
2013-1-8,67,60,58,63,58,55,100,95,87,30.20,30.11,6,0,6,0.05
2013-1-9,70,63,59,69,62,59,100,98,87,30.27,30.16,3,0,3,0.00
2013-1-10,79,66,59,70,64,59,100,94,67,30.28,30.20,5,0,5,0.03
2013-1-11,83,68,59,69,64,59,100,88,48,30.20,30.09,9,0,9,0.04
2013-1-12,81,68,59,69,64,59,100,90,56,30.13,30.03,5,0,6,0.04
2013-1-13,80,66,57,67,62,57,100,88,54,30.11,30.00,8,0,8,0.03
2013-1-14,81,67,58,67,62,58,100,85,55,30.12,30.03,5,0,10,0.06
2013-1-15,80,69,60,68,64,60,100,86,60,30.08,29.98,10,0,10,0.02
2013-1-16,82,70,62,66,63,59,99,80,48,30.01,29.90,13,0,13,0.14
2013-1-17,77,60,43,64,54,34,100,82,60,30.07,29.81,14,1,14,0.12
2013-1-18,58,51,42,48,42,34,86,72,63,30.32,30.07,13,2,14,0.00
2013-1-19,61,56,50,55,52,46,99,87,75,30.30,30.12,10,0,10,0.01
2013-1-20,71,59,50,55,52,48,100,80,47,30.14,30.00,6,0,6,0.01
2013-1-21,69,56,48,53,49,43,100,79,47,30.05,29.94,7,0,7,0.08
2013-1-22,62,52,41,44,35,26,80,54,27,30.23,30.01,8,0,11,0.00
2013-1-23,63,48,35,42,35,29,92,65,32,30.35,30.19,7,0,7,0.00
2013-1-24,73,57,42,54,47,40,94,72,43,30.22,30.10,13,1,13,0.01
2013-1-25,75,59,53,57,54,44,99,84,35,30.25,30.09,7,0,7,0.01
2013-1-26,76,63,50,60,56,48,100,80,58,30.15,30.06,6,0,13,0.07
2013-1-27,68,61,58,59,57,55,98,86,68,30.30,30.14,7,0,7,0.04
2013-1-28,75,64,54,65,60,54,100,90,66,30.30,30.19,6,0,6,0.01
2013-1-29,76,67,58,68,64,58,100,90,70,30.19,30.02,10,0,10,0.09
2013-1-30,83,74,59,66,64,57,95,73,51,30.03,29.70,18,1,18,0.09
2013-1-31,60,52,41,57,37,25,97,61,27,30.17,29.80,18,1,18,0.05
2013-2-1,66,50,37,37,33,28,84,55,27,30.25,30.16,11,0,11,0.01
2013-2-2,63,48,36,45,38,29,98,69,46,30.28,30.08,5,0,5,0.00
2013-2-3,67,51,39,42,36,26,99,62,23,30.11,29.95,11,0,11,0.00
2013-2-4,64,51,38,47,42,35,99,75,45,30.06,29.97,2,0,3,0.00
2013-2-5,71,56,42,53,45,38,98,71,34,30.03,29.92,6,0,6,0.00
2013-2-6,72,62,56,58,55,52,88,80,58,30.08,29.97,5,0,5,0.00
2013-2-7,77,66,60,66,63,58,100,89,62,30.03,29.73,13,0,13,0.07
2013-2-8,71,62,55,65,55,52,94,80,55,30.01,29.74,11,1,11,0.12
2013-2-9,65,57,48,52,48,42,98,76,48,30.19,30.01,8,0,8,0.06
2013-2-10,74,65,53,60,56,50,93,74,53,30.23,30.09,14,1,14,0.00
2013-2-11,81,69,62,65,61,58,97,77,49,30.11,29.98,13,1,13,0.02
2013-2-12,83,69,61,68,64,60,100,85,52,30.00,29.78,11,0,11,0.06
2013-2-13,76,70,64,73,65,48,99,83,50,29.84,29.71,11,0,11,0.19
2013-2-14,64,53,47,55,49,45,96,87,63,30.01,29.82,5,0,7,0.08
2013-2-15,63,51,42,49,45,41,99,83,57,30.03,29.91,6,0,6,0.00
2013-2-16,59,48,41,49,41,20,100,81,44,30.06,29.84,17,1,21,0.02
2013-2-17,53,41,32,27,18,8,83,42,18,30.28,30.06,13,1,13,0.00
2013-2-18,62,44,27,44,34,25,97,72,41,30.34,30.15,8,0,8,0.00
2013-2-19,79,61,44,62,51,42,100,74,38,30.16,29.91,17,1,17,0.01
2013-2-20,63,54,46,57,41,26,94,64,30,30.10,29.99,7,0,7,0.00
2013-2-21,67,55,41,61,48,41,100,81,48,30.08,29.97,6,0,6,0.00
2013-2-22,80,70,62,68,65,61,100,87,60,30.00,29.91,12,0,12,0.00
2013-2-23,84,73,61,68,66,61,100,79,50,29.91,29.75,17,1,17,0.14
2013-2-24,75,64,58,64,57,42,100,83,33,29.92,29.76,6,0,6,0.13
2013-2-25,66,62,58,66,62,57,100,98,84,29.87,29.72,10,0,10,0.13
2013-2-26,80,69,60,70,63,52,100,83,38,29.74,29.58,16,1,16,0.17
2013-2-27,70,60,53,54,47,40,85,63,36,29.89,29.74,12,0,12,0.12
2013-2-28,71,59,47,46,41,32,87,56,32,29.89,29.76,12,1,13,0.10
2013-3-1,62,52,47,38,36,33,63,53,37,29.92,29.81,10,0,10,0.13
2013-3-2,57,46,37,37,32,26,92,60,30,29.94,29.84,17,1,17,0.04
2013-3-3,47,41,32,31,28,25,82,62,45,30.06,29.91,13,1,13,0.02
2013-3-4,63,45,32,41,31,20,87,63,26,30.15,30.03,10,0,10,0.69
2013-3-5,77,59,39,57,44,36,97,64,25,30.10,29.80,12,0,12,0.07
2013-3-6,64,52,44,60,35,24,92,55,27,30.05,29.76,20,2,20,0.02
2013-3-7,60,47,37,44,38,30,97,71,52,30.16,30.05,7,0,7,0.00
2013-3-8,64,50,39,51,44,39,100,81,44,30.16,30.09,7,0,7,0.00
2013-3-9,66,54,41,52,46,41,100,78,48,30.20,30.10,10,0,10,0.00
2013-3-10,75,62,49,60,54,48,100,79,50,30.14,30.06,11,0,11,0.00
2013-3-11,75,64,52,62,57,52,100,78,53,30.06,29.83,16,0,16,0.00
2013-3-12,69,65,54,68,59,46,100,83,53,29.93,29.75,10,0,11,0.08
2013-3-13,72,59,49,46,36,28,73,45,22,30.10,29.93,12,1,12,0.00
2013-3-14,57,49,40,40,32,26,94,54,39,30.23,30.08,8,0,8,0.00
2013-3-15,70,52,36,46,39,24,100,67,28,30.20,30.04,7,0,9,0.00
2013-3-16,81,63,46,51,46,42,95,59,27,30.08,29.90,9,0,10,0.00
2013-3-17,79,63,46,59,49,40,95,65,26,30.04,29.90,10,0,10,0.00
2013-3-18,81,68,60,64,60,56,98,78,47,29.97,29.78,10,0,10,0.00
2013-3-19,82,69,60,64,59,56,96,73,44,29.93,29.80,11,0,11,0.00
2013-3-20,66,59,50,59,53,49,100,83,64,29.93,29.76,7,0,8,0.04
2013-3-21,68,54,43,50,36,21,100,58,18,29.88,29.77,8,0,8,0.02
2013-3-22,64,55,45,51,42,33,82,63,41,29.99,29.85,7,0,7,0.00
2013-3-23,70,61,55,67,60,51,100,96,80,29.92,29.71,12,0,12,0.07
2013-3-24,85,72,62,73,66,62,100,86,52,29.72,29.43,16,1,16,0.13
2013-3-25,68,59,50,62,37,24,86,47,21,29.94,29.52,20,2,20,0.03
2013-3-26,58,48,40,30,27,22,58,44,28,30.17,29.94,16,1,16,0.02
2013-3-27,61,47,37,40,32,26,92,59,29,30.22,30.13,10,0,10,0.01
2013-3-28,67,50,38,44,38,29,97,69,26,30.22,30.13,10,0,10,0.01
2013-3-29,73,55,41,47,42,32,100,69,24,30.25,30.13,6,0,8,0.00
2013-3-30,79,60,43,54,46,37,100,68,25,30.18,30.02,13,0,13,0.00
2013-3-31,83,67,52,57,51,44,87,59,33,30.06,29.88,11,0,12,0.00
2013-4-1,81,69,60,67,62,57,97,79,52,29.91,29.80,11,0,12,0.00
2013-4-2,75,64,53,62,53,41,100,73,33,30.04,29.89,7,0,7,0.00
2013-4-3,78,63,53,65,60,53,100,90,58,30.02,29.94,10,0,10,0.00
2013-4-4,78,70,64,71,66,64,100,88,68,29.98,29.76,11,0,11,0.00
2013-4-5,67,58,54,65,57,52,100,96,89,29.94,29.73,5,0,5,0.01
2013-4-6,68,57,51,56,52,50,99,86,65,30.08,29.94,10,0,10,0.02
2013-4-9,65,64,64,63,63,63,96,96,96,30.08,30.08,0,0,0,0.00
2013-4-10,65,65,65,63,63,62,92,91,91,30.06,30.04,0,0,0,0.00
2013-4-13,78,69,60,68,55,46,91,63,35,29.92,29.78,1,0,5,0.00
2013-4-14,75,64,57,67,62,57,100,93,68,29.93,29.81,2,0,7,0.77
2013-4-15,84,69,61,68,64,61,100,88,53,30.04,29.75,5,0,8,0.01
2013-4-16,79,70,64,70,67,64,100,89,68,30.11,30.01,1,0,7,0.00
2013-4-17,76,70,64,70,67,64,100,91,75,30.10,30.02,0,0,6,0.00
2013-4-18,84,73,64,72,68,64,100,85,58,30.01,29.90,6,0,8,0.00
2013-4-19,90,77,68,75,71,66,98,86,47,29.93,29.79,13,0,14,0.46
2013-4-20,68,56,50,65,54,50,100,92,78,30.11,29.91,8,0,8,0.50
2013-4-21,68,64,58,64,59,52,95,83,75,30.12,30.03,12,0,12,0.02
2013-4-22,66,62,60,64,60,55,100,92,78,30.08,29.97,11,0,11,0.13
2013-4-23,70,63,56,59,57,55,98,80,64,30.10,29.99,8,0,8,0.00
2013-4-24,81,67,53,66,60,53,100,82,49,30.09,30.02,8,0,8,0.00
2013-4-25,86,71,59,69,64,59,100,81,44,30.12,30.02,6,0,6,0.00
2013-4-26,78,69,61,68,63,57,95,82,61,30.21,30.08,10,0,10,0.00
2013-4-27,82,71,62,66,63,58,100,78,47,30.19,30.09,10,0,10,0.00
2013-4-28,81,72,65,66,65,62,97,80,56,30.09,29.92,8,0,14,0.00
2013-4-29,83,71,65,72,67,64,100,89,55,29.94,29.83,7,0,12,0.61
2013-4-30,82,70,63,71,66,63,100,89,56,29.96,29.86,8,0,8,0.01
2013-5-1,76,69,64,69,66,63,100,90,78,29.98,29.90,11,0,11,0.00
2013-5-2,70,68,66,69,68,66,100,98,93,29.95,29.83,13,0,13,2.19
2013-5-3,69,67,64,67,65,60,100,93,75,29.84,29.76,19,1,19,1.07
2013-5-4,69,68,65,69,66,60,100,95,76,29.76,29.63,17,1,17,0.57
2013-5-5,79,68,60,69,58,49,100,75,36,29.81,29.64,16,0,16,0.21
2013-5-6,75,65,55,58,50,45,94,62,36,29.90,29.77,8,0,8,0.00
2013-5-7,78,67,55,61,55,51,94,68,45,29.94,29.82,10,0,10,0.00
2013-5-8,83,69,57,65,60,54,100,76,39,30.01,29.91,9,0,9,0.00
2013-5-9,84,72,62,66,62,56,100,73,41,30.05,29.98,7,0,7,0.00
2013-5-10,87,73,60,70,65,60,100,78,45,30.04,29.91,8,0,8,0.00
2013-5-11,88,73,67,71,68,66,98,85,54,29.96,29.88,8,0,8,0.00
2013-5-12,86,80,71,66,62,54,64,55,47,29.94,29.84,6,0,7,0.01
2013-5-13,80,69,58,59,50,39,93,55,24,30.06,29.91,12,0,12,0.00
2013-5-14,78,66,52,56,50,38,94,61,27,30.16,30.06,6,0,6,0.00
2013-5-15,85,70,55,63,56,49,100,67,32,30.14,30.00,7,0,7,0.00
2013-5-16,85,73,60,68,64,59,99,75,47,30.04,29.94,7,0,7,0.00
2013-5-17,84,74,62,69,66,60,100,79,49,30.03,29.96,7,0,7,0.00
2013-5-18,86,76,66,73,70,65,100,84,53,30.05,29.94,12,0,12,0.10
2013-5-19,85,75,68,75,71,68,100,86,64,30.01,29.93,10,0,10,0.01
2013-5-20,82,74,69,74,71,69,100,89,71,30.01,29.93,1,0,7,0.03
2013-5-21,85,76,69,74,71,68,100,87,59,29.97,29.88,11,0,11,0.00
2013-5-22,82,75,67,75,71,67,100,88,69,29.91,29.83,5,0,5,0.09
2013-5-23,88,76,69,77,70,66,100,84,55,29.89,29.81,7,0,7,0.01
2013-5-24,90,79,69,71,64,50,100,65,27,30.02,29.85,8,1,8,0.00
2013-5-25,82,73,64,67,58,52,99,60,38,30.17,30.02,7,0,7,0.00
2013-5-26,84,71,58,64,56,46,100,66,27,30.16,30.07,7,0,7,0.00
2013-5-27,84,72,59,67,63,59,100,76,52,30.13,30.06,6,0,7,0.00
2013-5-28,83,76,70,69,66,63,85,72,59,30.11,30.04,8,0,8,0.00
2013-5-29,86,78,73,74,72,68,91,80,64,30.09,30.02,7,0,7,0.00
2013-5-30,86,79,74,76,73,71,94,82,65,30.10,30.01,8,0,8,0.02
2013-5-31,86,79,74,74,72,70,89,78,64,30.08,30.01,8,0,8,0.05
2013-6-1,85,79,74,73,72,70,88,78,64,30.02,29.94,12,0,12,0.02
2013-6-2,87,80,75,77,74,73,96,85,68,29.97,29.81,7,0,8,0.01
2013-6-3,93,78,71,77,74,70,100,89,48,29.88,29.77,11,0,11,1.12
2013-6-4,89,76,71,78,74,70,100,92,59,29.93,29.84,6,0,7,1.09
2013-6-5,82,75,72,74,72,70,100,92,67,29.92,29.84,7,0,7,0.01
2013-6-6,77,74,71,77,74,71,100,98,87,29.86,29.47,13,0,16,1.03
2013-6-7,89,79,71,76,72,68,99,81,57,29.83,29.48,12,0,13,0.18
2013-6-8,91,80,72,78,74,69,100,83,52,29.99,29.82,7,0,7,0.04
2013-6-9,86,78,72,77,74,71,100,88,68,30.04,29.95,12,0,12,0.03
2013-6-10,89,80,75,78,75,72,99,85,58,30.01,29.91,10,0,10,0.04
2013-6-11,92,81,73,78,74,71,100,81,53,29.99,29.91,7,0,7,0.02
2013-6-12,98,83,72,77,74,69,100,76,42,29.97,29.87,6,0,6,0.01
2013-6-13,98,84,76,80,76,70,93,76,43,29.90,29.75,11,0,11,0.03
2013-6-14,92,80,72,78,75,70,99,85,59,29.85,29.70,8,0,11,0.19
2013-6-15,87,80,75,75,70,68,98,70,55,30.00,29.85,6,0,6,0.05
2013-6-16,88,80,72,74,71,68,92,74,58,30.04,29.96,5,0,7,0.00
2013-6-17,90,82,76,79,76,74,96,81,64,30.00,29.87,8,0,8,0.00
2013-6-18,95,83,72,76,72,69,100,72,43,29.94,29.81,7,0,7,0.01
2013-6-19,95,82,72,77,74,68,100,77,42,29.95,29.83,17,0,17,1.52
2013-6-20,74,73,73,74,73,73,100,100,100,29.94,29.92,0,0,0,0.00
2013-6-23,89,80,72,78,74,72,100,84,63,30.08,30.00,3,0,6,0.00
2013-6-24,89,81,73,76,74,72,100,82,61,30.11,30.01,1,0,10,0.00
2013-6-25,90,81,74,77,74,71,100,82,56,30.09,29.97,1,0,7,0.00
2013-6-26,93,80,73,77,74,69,100,83,49,30.00,29.91,5,0,8,0.00
2013-6-27,92,80,71,79,74,71,98,85,56,29.94,29.80,0,0,8,0.59
2013-6-28,92,81,77,77,74,71,96,80,53,29.84,29.68,5,0,10,0.01
2013-6-29,87,80,76,77,75,72,97,84,65,29.72,29.66,1,0,10,0.18
2013-6-30,91,78,74,77,74,72,99,89,57,29.76,29.69,9,0,9,0.36
2013-7-1,85,75,72,76,73,72,100,94,73,29.93,29.75,6,0,12,1.31
2013-7-2,86,75,72,77,74,72,100,96,73,30.02,29.90,2,0,11,0.17
2013-7-3,87,79,72,78,75,72,100,88,70,30.06,29.99,5,0,10,0.00
2013-7-4,87,80,74,78,74,72,97,85,71,30.09,30.02,12,0,12,0.00
2013-7-5,88,78,73,78,74,72,100,89,69,30.10,30.02,11,0,11,0.00
2013-7-6,88,81,74,77,75,73,100,84,67,30.07,30.00,10,0,10,0.00
2013-7-7,89,81,73,78,75,73,100,83,63,30.08,30.00,6,0,7,0.00
2013-7-8,89,81,73,78,75,72,100,84,63,30.10,30.02,5,0,5,0.00
2013-7-9,90,81,74,78,74,72,100,83,59,30.10,30.00,7,0,7,0.00
2013-7-10,84,74,71,78,73,71,100,97,72,30.02,29.98,3,0,3,0.00
2013-7-11,90,81,74,76,74,72,97,80,61,29.93,29.79,3,0,10,0.00
2013-7-12,89,78,74,78,74,71,100,88,61,29.85,29.79,7,0,7,0.04
2013-7-13,89,80,73,78,74,71,100,82,65,29.92,29.81,5,0,5,0.02
2013-7-14,84,81,79,73,70,67,75,69,67,30.01,29.90,0,0,0,0.00
2013-8-5,75,75,75,59,59,59,57,57,57,30.10,30.10,1,1,3,0.00
2013-8-11,91,83,79,74,73,69,83,72,51,30.14,30.08,5,0,6,0.00
2013-8-12,96,84,76,76,73,70,91,70,46,30.13,30.00,6,0,6,0.00
2013-8-13,95,84,75,79,74,69,92,72,43,30.04,29.90,5,0,5,0.00
2013-8-14,98,83,72,78,73,66,94,75,36,30.00,29.88,4,0,9,0.16
2013-8-15,93,81,74,79,73,66,98,80,47,30.05,29.93,8,0,8,0.17
2013-8-16,90,78,72,77,73,68,99,88,50,30.07,29.95,11,0,11,0.54
2013-8-17,88,79,75,80,76,71,100,89,62,30.12,30.01,6,0,6,0.12
2013-8-18,91,82,75,80,76,71,100,84,56,30.14,30.06,7,0,7,0.01
2013-8-19,90,82,76,80,76,73,97,82,60,30.11,29.99,6,0,8,0.03
2013-8-20,92,83,74,81,75,73,99,79,57,30.14,30.03,7,0,7,0.00
2013-8-21,91,82,77,79,76,68,94,83,60,30.18,30.09,5,0,5,0.20
2013-8-22,81,77,72,77,74,68,97,91,72,30.17,30.03,7,0,7,0.57
2013-8-23,83,77,75,82,76,74,100,95,83,30.06,30.00,3,0,3,0.41
2013-8-24,83,78,74,78,74,73,100,89,73,30.16,30.03,5,0,5,0.00
2013-8-25,83,78,73,76,73,69,99,85,71,30.21,30.13,10,1,10,1.03
2013-8-26,87,81,77,76,72,68,86,76,55,30.20,30.08,10,1,10,0.01
2013-8-27,89,80,74,75,70,64,93,72,46,30.11,30.02,6,0,6,0.00
2013-8-28,90,79,70,74,68,65,98,73,49,30.07,29.99,5,0,5,0.00
2013-8-29,94,82,72,75,69,62,93,67,35,30.03,29.91,6,0,6,0.00
2013-8-30,94,82,75,78,73,66,93,75,47,29.97,29.87,6,0,6,0.08
2013-8-31,93,80,73,78,73,67,98,80,55,29.97,29.88,3,0,6,0.00
2013-9-1,94,80,73,77,72,68,98,80,45,29.99,29.89,8,0,8,0.58
2013-9-2,93,79,72,79,74,69,100,86,48,30.00,29.90,5,0,8,0.52
2013-9-3,89,77,74,78,74,73,100,93,64,30.00,29.92,4,0,4,0.01
2013-9-4,92,82,75,77,74,69,99,78,56,30.09,29.98,1,0,11,0.00
2013-9-5,93,83,74,78,74,72,97,76,51,30.11,30.01,5,0,6,0.00
2013-9-6,90,79,74,76,73,72,98,83,57,30.07,30.00,4,0,6,0.00
2013-9-7,89,80,72,75,71,68,96,77,52,30.05,29.97,7,1,7,0.00
2013-9-8,89,79,70,74,69,64,99,73,46,30.00,29.93,7,0,7,0.00
2013-9-9,88,79,70,73,69,66,99,74,51,30.08,29.97,7,0,7,0.00
2013-9-10,89,82,75,72,70,66,87,67,50,30.16,30.05,10,1,10,0.00
2013-9-11,89,80,73,74,72,70,96,77,58,30.14,30.05,7,1,8,0.00
2013-9-12,89,79,73,78,72,67,99,82,50,30.06,29.92,5,0,5,0.24
2013-9-13,94,81,72,76,71,64,100,75,39,29.92,29.79,6,0,6,0.00
2013-9-14,96,81,73,77,73,64,94,77,39,30.01,29.82,4,0,4,0.01
2013-9-15,90,81,73,77,73,70,98,77,54,30.10,29.99,2,0,6,0.00
2013-9-16,90,82,74,76,74,73,98,78,57,30.10,30.02,2,0,6,0.00
2013-9-17,86,79,74,78,73,71,99,83,65,30.12,30.02,7,1,8,0.20
2013-9-18,83,78,74,74,71,68,97,81,66,30.12,30.03,11,2,11,1.39
2013-9-19,86,79,74,74,69,66,88,72,59,30.10,30.03,3,1,8,0.04
2013-9-20,85,76,70,74,69,66,98,79,58,30.07,29.94,3,0,6,0.09
2013-9-21,87,77,68,74,69,67,99,80,54,29.96,29.77,3,0,7,0.03
2013-9-22,83,76,73,74,72,69,96,87,72,29.85,29.74,2,0,6,0.19
2013-9-23,81,76,72,74,72,71,100,91,76,29.97,29.85,1,0,3,0.04
2013-9-24,81,76,72,77,74,72,100,94,80,29.97,29.82,2,0,3,0.62
2013-9-25,82,77,74,76,74,72,100,91,76,29.83,29.75,3,0,6,0.06
2013-9-26,77,74,70,76,72,68,100,92,77,29.91,29.75,5,1,6,0.02
2013-9-27,79,75,68,73,69,66,96,82,73,30.01,29.89,10,1,10,0.40
2013-9-28,78,75,72,71,68,65,94,79,71,30.08,29.98,7,1,7,0.03
2013-9-29,80,75,70,71,68,65,99,80,68,30.03,29.97,8,1,8,0.23
2013-9-30,81,75,70,69,65,60,92,72,52,30.06,29.95,6,0,6,0.00
2013-10-1,80,73,69,69,64,62,90,73,54,30.12,30.03,6,0,6,0.00
2013-10-2,82,73,64,70,65,58,98,78,57,30.12,30.06,8,0,8,0.00
2013-10-3,85,76,68,79,71,64,100,85,66,30.11,30.04,6,0,6,0.00
2013-10-4,86,78,71,76,72,70,99,85,62,30.12,30.04,4,0,7,0.00
2013-10-5,84,77,71,78,72,69,99,86,69,30.09,30.02,7,0,7,0.00
2013-10-6,88,79,72,76,74,72,100,87,64,30.02,29.88,5,0,6,0.23
2013-10-7,87,76,72,76,73,69,100,90,58,29.88,29.77,5,0,5,0.97
2013-10-8,80,73,68,77,71,65,100,94,82,30.01,29.79,8,1,8,0.99
2013-10-9,72,64,61,65,62,60,100,94,74,30.10,30.00,8,1,8,0.02
2013-10-10,82,70,62,67,63,58,100,82,48,30.09,29.99,5,0,5,0.00
2013-10-11,84,72,62,70,62,56,100,75,43,30.06,29.94,5,0,6,0.01
2013-10-12,85,72,62,79,61,52,100,73,36,30.05,29.97,4,0,6,0.00
2013-10-13,87,72,62,69,64,59,99,78,40,30.11,30.02,6,0,6,0.00
2013-10-14,76,70,67,71,67,64,99,89,76,30.08,30.01,6,1,6,0.08
2013-10-15,73,71,68,71,68,66,99,92,84,30.02,29.95,10,1,10,0.26
2013-10-16,82,74,67,71,68,64,95,83,66,30.00,29.94,6,0,6,0.00
2013-10-17,86,74,66,74,69,66,100,85,56,29.99,29.91,5,0,5,0.00
2013-10-18,89,76,68,74,71,68,100,84,55,30.00,29.91,6,0,6,0.00
2013-10-19,90,78,72,76,72,69,99,86,54,29.96,29.87,8,0,8,0.23
2013-10-20,78,72,67,72,66,62,99,81,60,30.01,29.90,6,0,6,0.00
2013-10-21,80,75,70,74,71,68,98,90,81,30.04,29.97,6,0,6,0.01
2013-10-22,78,74,71,76,73,71,100,95,86,29.99,29.83,3,0,3,0.66
2013-10-23,75,67,56,71,58,46,100,77,39,30.04,29.82,10,1,10,0.05
2013-10-24,72,60,53,56,49,40,94,67,45,30.19,30.05,6,1,6,0.00
2013-10-25,74,62,53,54,51,47,94,70,42,30.28,30.18,6,0,6,0.00
2013-10-26,72,61,52,57,52,45,96,73,57,30.27,30.15,3,0,7,0.00
2013-10-27,73,59,48,56,49,38,100,74,30,30.18,30.11,6,0,6,0.00
2013-10-28,77,64,53,61,57,51,99,81,56,30.24,30.12,5,0,5,0.00
2013-10-29,77,67,58,68,62,58,100,83,62,30.30,30.20,7,0,7,0.01
2013-10-30,78,70,61,69,63,60,99,81,64,30.28,30.17,7,0,7,0.00
2013-10-31,83,73,64,80,67,64,100,83,55,30.17,30.00,10,1,10,0.00
2013-11-1,83,76,68,71,68,66,95,79,59,30.01,29.83,8,1,8,0.00
2013-11-2,76,66,57,72,64,56,100,92,65,29.97,29.78,8,0,8,2.08
2013-11-3,71,62,52,58,50,43,99,67,38,30.21,29.97,10,1,10,0.00
2013-11-4,74,68,60,65,58,48,94,71,54,30.27,30.19,13,2,13,0.09
2013-11-5,72,68,65,68,65,61,98,92,82,30.28,30.19,12,2,12,0.14
2013-11-6,80,71,66,71,67,64,98,89,65,30.19,30.09,7,0,7,0.02
2013-11-7,79,70,66,69,66,63,100,88,62,30.09,29.98,6,0,6,0.00
2013-11-8,69,61,53,63,51,44,82,69,61,30.22,30.03,8,2,8,0.00
2013-11-9,76,68,63,63,58,52,96,73,53,30.25,30.17,7,1,7,0.00
2013-11-10,75,66,58,68,62,57,100,87,59,30.24,30.15,4,0,6,0.00
2013-11-11,76,65,56,65,60,56,100,86,55,30.22,30.13,6,0,6,0.00
2013-11-12,76,67,60,66,59,46,96,77,46,30.16,30.04,8,1,8,0.00
2013-11-13,60,52,50,47,42,37,80,67,59,30.43,30.16,14,2,14,0.00
2013-11-14,67,59,46,60,53,42,96,81,64,30.39,30.23,9,1,9,0.00
2013-11-15,67,63,56,66,61,55,100,96,85,30.25,30.08,3,0,3,0.02
2013-11-16,77,68,61,68,65,60,100,91,67,30.19,30.11,10,0,10,0.00
2013-11-17,78,71,67,72,69,66,100,93,76,30.12,30.01,5,0,5,0.28
2013-11-18,81,72,67,75,70,67,100,94,74,30.03,29.90,7,0,7,0.20
2013-11-19,71,64,55,71,56,45,100,75,62,30.06,29.92,8,1,8,0.05
2013-11-20,68,65,62,65,62,57,100,92,79,30.20,30.03,8,1,8,0.78
2013-11-21,73,66,64,68,65,64,100,95,80,30.26,30.17,6,1,6,0.01
2013-11-22,78,69,61,70,65,61,100,90,62,30.27,30.15,3,0,5,0.01
2013-11-23,83,68,58,69,63,58,100,86,46,30.15,30.02,9,0,9,0.08
2013-11-24,64,57,53,59,47,39,87,69,54,30.37,30.08,11,2,11,0.00
2013-11-25,70,63,55,60,54,43,78,73,59,30.34,30.13,8,1,9,0.00
2013-11-26,76,70,66,72,67,59,99,91,75,30.12,29.70,11,1,11,0.68
2013-11-27,71,55,40,71,49,30,99,80,66,30.23,29.62,17,2,17,0.19
2013-11-28,58,44,34,45,37,28,90,76,56,30.42,30.23,7,1,7,0.00
2013-11-29,50,45,44,48,43,41,95,93,90,30.43,30.39,5,1,5,0.00
2013-11-30,59,57,54,58,55,52,95,93,87,30.40,30.24,8,1,8,0.01
2013-12-1,68,59,55,60,55,53,98,89,72,30.24,30.00,4,1,5,0.01
2013-12-2,66,57,50,56,53,49,100,89,63,30.00,29.84,5,0,5,0.01
2013-12-3,75,60,48,61,55,48,100,86,56,29.99,29.90,6,0,6,0.01
2013-12-4,80,66,57,69,62,56,100,88,55,30.11,29.96,6,0,6,0.00
2013-12-5,85,69,57,69,63,56,100,83,47,30.18,30.09,5,0,7,0.00
2013-12-6,83,71,63,71,66,62,99,85,57,30.17,30.10,10,0,10,0.00
2013-12-7,86,72,65,72,67,64,100,86,50,30.23,30.15,6,0,6,0.00
2013-12-8,68,64,62,66,63,62,100,97,90,30.27,30.17,5,0,5,0.00
2013-12-9,83,70,61,77,66,61,100,89,58,30.19,30.08,8,0,8,0.01
2013-12-10,82,67,54,70,63,44,100,88,59,30.26,30.04,5,1,8,0.13
2013-12-11,64,58,50,59,53,44,91,83,73,30.31,30.23,7,1,7,0.00
2013-12-12,64,56,51,50,40,26,77,57,25,30.39,30.25,7,1,7,0.00
2013-12-13,68,55,46,56,50,42,98,84,63,30.34,30.15,7,0,7,0.02
2013-12-14,77,66,54,69,64,54,100,92,71,30.15,29.88,11,1,11,0.38
2013-12-15,67,60,48,66,56,42,100,89,72,30.17,29.86,11,1,11,0.32
2013-12-16,59,47,38,45,40,34,97,81,54,30.27,30.16,8,1,8,0.01
2013-12-17,69,50,38,48,41,30,100,78,25,30.29,30.18,5,0,5,0.00
2013-12-18,63,51,41,43,37,22,96,65,21,30.31,30.20,10,1,10,0.00
2013-12-19,70,53,39,57,48,38,99,87,62,30.32,30.22,5,0,5,0.00
2013-12-20,74,59,47,64,55,47,100,88,59,30.24,30.16,6,0,6,0.00
2013-12-21,82,69,57,70,64,57,100,87,59,30.16,30.04,8,1,12,0.00
2013-12-22,84,74,70,71,69,67,98,84,57,30.14,30.07,14,1,14,0.00
2013-12-23,84,74,61,70,68,59,97,83,57,30.16,30.06,12,1,12,0.02
2013-12-24,62,54,46,60,42,31,95,66,35,30.32,30.13,13,2,13,0.01
2013-12-25,62,52,41,54,47,35,93,84,64,30.32,30.25,11,1,11,0.00
2013-12-26,56,54,50,55,50,46,96,86,77,30.30,30.19,10,1,10,0.00
2013-12-27,60,57,53,55,53,50,92,87,78,30.34,30.23,11,1,11,0.00
2013-12-28,69,64,59,67,61,53,99,90,79,30.30,30.00,8,0,8,0.14
2013-12-29,73,69,59,70,66,56,99,91,86,30.01,29.89,11,1,11,0.57
2013-12-30,65,56,49,56,49,44,96,80,49,30.21,30.01,9,1,9,0.00
2013-12-31,62,56,54,52,49,45,96,78,55,30.34,30.20,5,0,6,0.00
2014-1-1,60,57,53,60,55,50,100,94,84,30.32,30.08,2,0,3,0.70
2014-1-2,64,60,53,64,59,46,100,98,77,30.09,29.76,16,1,16,1.21